Flagstaff Pulliam Airport
KFLG : now visible

Airfield :











YOU CAN JOIN US ON...

 
LOGIN :

Register | Disclaimer

   EN    FR    IT 

 









Legend :    VFR   Marginal VFR   IFR   Intensive IFR   Very Intensive IFR
Visi :
Ceiling :
>= 8 km
>= 3000ft
5 to 8 km
1000 to 3000 ft
1500m to 5 km
500 to 1000 ft
800 to 1500m
200 to 500 ft
< 800m
< 200 ft
Symbols :   Thunderstorms  Fog  Heavy snow  Heavy precipitations  Wind > 20 kt






- Airport Elevation : 7014 ft
- IATA code : FLG


KFLG - Flagstaff Pulliam

CURRENT METAR :
  • 021057Z AUTO 21018G26KT 10SM BKN080 OVC110 04/M03 A3003 RMK AO2 PK WND 21030/1045 SLP122 T00391028

EXPIRED METARs :
  • 020957Z AUTO 21015G26KT 10SM OVC095 04/M02 A3003 RMK AO2 PK WND 20026/0906 SLP117 T00391022
  • 020857Z AUTO 21017G25KT 10SM OVC090 04/M02 A3003 RMK AO2 PK WND 22028/0822 SLP115 T00441022 55003

TAF KFLG
Valid from the 02 at 12:00 until the 03 at 12:00 UTC


021120Z 0212/0312 22015G26KT P6SM BKN100
FM021400 23013G25KT P6SM OVC090
FM022300 23009G15KT P6SM SCT250
FM030300 VRB05KT P6SM BKN250
KZAB FIR / North America



MET'MAP, your aeronautical weather chart ! - Copyright ORBIFLY December 2007 - Disclaimer

ORBIFLY MET'MAP TEAM :

Programming & Development : Alexandra Zaïnal
Original concept : Baudouin d'Aumeries
Technical & hardware support : Manuel Goepfert
Assistance : Marc-Olivier Méhu




SOURCES & CREDITS :

   NOAA       Earth
Advisory